< < Back
Terminal Aerodrome Forecast


Current Version              Previous Versions:   1  2  3  4  5  6  7  8  9  

Terminal Aerodrome Forecast

018
FTUS42 KGSP 241100
TAFAVL
TAF
KAVL 241120Z 2412/2512 14003KT P6SM SKC
     FM241400 14006KT P6SM FEW250
     FM242100 17010KT P6SM FEW250
     FM250100 17005KT P6SM FEW250
     FM250600 17004KT P6SM BKN050
     FM251000 18004KT P6SM OVC027=

Latest METAR

158
SAUS70 KWBC 250200 RRH
MTRAVL
METAR KAVL 250154Z 00000KT 10SM CLR 14/03 A3001 RMK AO2 SLP148
T01440033


USA.gov is the U.S. government's official web portal to all federal, state and local government web resources and services.